Time;durP1;ratioP1;P1;durP2;ratioP2;P2;SDS_P1;SDS_P2;PMS_P1;PMS_P2;Temp;Humidity;BMP_temperature;BMP_pressure;BME280_temperature;BME280_humidity;BME280_pressure;Samples;Min_cycle;Max_cycle;Signal;HPM_P1;HPM_P2
2022/03/03 00:00:43;;;;;;;47.70;25.23;;;;;;;-0.27;59.53;100705.09;5112456;28;20023;-70
2022/03/03 00:03:08;;;;;;;44.60;25.08;;;;;;;-0.35;59.75;100696.59;5111709;28;20043;-71
2022/03/03 00:05:34;;;;;;;56.33;26.70;;;;;;;-0.41;59.89;100688.06;5096582;28;20073;-71
2022/03/03 00:07:59;;;;;;;48.47;25.70;;;;;;;-0.42;60.18;100704.81;5096631;28;20122;-70
2022/03/03 00:10:25;;;;;;;51.47;24.40;;;;;;;-0.45;59.92;100699.66;5111142;28;20495;-70
2022/03/03 00:12:51;;;;;;;48.67;25.58;;;;;;;-0.50;60.17;100697.19;5111325;28;20070;-71
2022/03/03 00:15:16;;;;;;;50.22;24.00;;;;;;;-0.55;60.30;100703.53;5111013;28;20585;-71
2022/03/03 00:17:42;;;;;;;44.75;25.08;;;;;;;-0.64;60.61;100690.72;5111008;28;20084;-70
2022/03/03 00:20:08;;;;;;;49.05;25.27;;;;;;;-0.69;60.52;100688.25;5101689;28;20111;-70
2022/03/03 00:22:33;;;;;;;56.13;26.88;;;;;;;-0.68;60.78;100702.28;5110653;28;20052;-70
2022/03/03 00:24:59;;;;;;;50.67;26.33;;;;;;;-0.76;60.83;100694.66;5101303;28;20042;-70
2022/03/03 00:27:24;;;;;;;46.90;24.17;;;;;;;-0.80;60.95;100692.19;5111313;28;20032;-71
2022/03/03 00:29:49;;;;;;;48.00;25.13;;;;;;;-0.75;60.72;100700.75;5110790;28;20027;-70
2022/03/03 00:32:15;;;;;;;47.38;24.88;;;;;;;-0.85;61.31;100692.34;5110620;28;20060;-72
2022/03/03 00:34:41;;;;;;;46.55;25.13;;;;;;;-0.84;61.19;100698.47;5111056;28;20056;-71
2022/03/03 00:37:07;;;;;;;50.50;24.70;;;;;;;-1.01;61.46;100678.00;5111013;28;20114;-71
2022/03/03 00:39:32;;;;;;;46.47;25.40;;;;;;;-0.93;61.40;100690.88;5110485;28;20706;-71
2022/03/03 00:41:58;;;;;;;44.92;25.05;;;;;;;-0.94;61.38;100689.16;5110601;28;20036;-71
2022/03/03 00:44:23;;;;;;;43.30;23.08;;;;;;;-1.01;61.41;100678.00;5111815;28;20059;-76
2022/03/03 00:46:48;;;;;;;49.58;24.52;;;;;;;-1.03;61.61;100685.06;5111696;27;20030;-76
2022/03/03 00:49:14;;;;;;;49.75;24.77;;;;;;;-1.07;62.22;100675.56;5111942;28;20080;-75
2022/03/03 00:51:39;;;;;;;48.80;24.10;;;;;;;-1.11;62.14;100679.22;5111720;28;20051;-75
2022/03/03 00:54:05;;;;;;;52.33;24.40;;;;;;;-1.20;61.89;100661.13;5099891;28;20102;-75
2022/03/03 00:56:30;;;;;;;49.88;24.85;;;;;;;-1.15;62.00;100676.75;5099770;28;20016;-76
2022/03/03 00:58:56;;;;;;;50.47;24.45;;;;;;;-1.12;61.84;100690.69;5110622;28;20103;-71
2022/03/03 01:01:21;;;;;;;48.47;24.98;;;;;;;-1.25;62.03;100670.97;5110098;28;20118;-71
2022/03/03 01:03:47;;;;;;;47.33;26.35;;;;;;;-1.22;62.04;100672.63;5098043;28;20043;-71
2022/03/03 01:06:13;;;;;;;47.08;24.00;;;;;;;-1.26;61.96;100677.13;5095761;28;20027;-70
2022/03/03 01:08:38;;;;;;;52.92;23.58;;;;;;;-1.29;62.12;100674.59;5110237;28;20019;-71
2022/03/03 01:11:05;;;;;;;53.63;24.77;;;;;;;-1.29;62.15;100671.97;5110222;28;20537;-70
2022/03/03 01:13:31;;;;;;;48.60;25.15;;;;;;;-1.33;62.47;100666.84;5110211;28;20035;-71
2022/03/03 01:15:57;;;;;;;52.15;24.10;;;;;;;-1.45;62.68;100649.72;5109942;28;20035;-76
2022/03/03 01:18:23;;;;;;;45.88;24.08;;;;;;;-1.38;62.48;100663.53;5111337;28;20474;-76
2022/03/03 01:20:49;;;;;;;47.33;23.27;;;;;;;-1.45;62.68;100656.78;5111063;28;20023;-76
2022/03/03 01:23:15;;;;;;;56.35;25.92;;;;;;;-1.53;62.81;100646.50;5111167;28;20093;-76
2022/03/03 01:25:41;;;;;;;47.03;23.23;;;;;;;-1.49;62.95;100648.09;5110823;28;20047;-71
2022/03/03 01:28:06;;;;;;;45.42;24.83;;;;;;;-1.49;63.54;100657.78;5109877;28;20490;-71
2022/03/03 01:30:32;;;;;;;48.15;24.83;;;;;;;-1.51;63.63;100655.22;5108998;28;20026;-71
2022/03/03 01:32:57;;;;;;;47.38;25.30;;;;;;;-1.54;63.76;100649.19;5109995;28;20058;-71
2022/03/03 01:35:23;;;;;;;45.22;23.05;;;;;;;-1.47;63.74;100648.94;5107423;28;20117;-70
2022/03/03 01:37:48;;;;;;;47.53;25.50;;;;;;;-1.50;64.44;100635.88;5109605;27;20016;-71
2022/03/03 01:40:14;;;;;;;46.92;24.00;;;;;;;-1.47;64.08;100643.66;5109708;28;20039;-71
2022/03/03 01:42:40;;;;;;;48.65;24.85;;;;;;;-1.49;64.21;100636.75;5109306;28;20040;-70
2022/03/03 01:45:06;;;;;;;49.63;24.52;;;;;;;-1.53;64.45;100635.97;5109207;28;20047;-71
2022/03/03 01:47:31;;;;;;;52.50;25.90;;;;;;;-1.53;64.49;100645.63;5094527;28;20027;-72
2022/03/03 01:49:57;;;;;;;49.63;26.58;;;;;;;-1.55;64.61;100642.22;5109495;28;20026;-70
2022/03/03 01:52:24;;;;;;;47.50;24.10;;;;;;;-1.59;65.04;100640.56;5109319;28;20094;-71
2022/03/03 01:54:50;;;;;;;47.05;25.42;;;;;;;-1.67;64.82;100626.84;5109119;28;20147;-71
2022/03/03 01:57:17;;;;;;;52.67;25.08;;;;;;;-1.60;65.12;100639.72;5094975;28;20376;-70
2022/03/03 01:59:43;;;;;;;49.60;25.95;;;;;;;-1.66;65.25;100629.41;5107733;28;20027;-70
2022/03/03 02:02:10;;;;;;;54.75;25.08;;;;;;;-1.65;65.00;100633.75;5109288;28;20043;-70
2022/03/03 02:04:38;;;;;;;50.95;26.05;;;;;;;-1.64;64.87;100632.00;5109308;28;20065;-70
2022/03/03 02:07:03;;;;;;;52.10;26.75;;;;;;;-1.64;64.26;100626.75;5108992;28;20511;-70
2022/03/03 02:09:29;;;;;;;51.60;26.33;;;;;;;-1.67;64.03;100614.56;5106690;28;20122;-71
2022/03/03 02:11:55;;;;;;;52.00;26.65;;;;;;;-1.67;64.67;100618.94;5096867;28;20455;-71
2022/03/03 02:14:20;;;;;;;61.65;27.63;;;;;;;-1.73;64.80;100603.38;5099571;28;20380;-71
2022/03/03 02:16:46;;;;;;;49.58;24.90;;;;;;;-1.72;64.89;100591.94;5109158;28;20032;-71
2022/03/03 02:19:19;;;;;;;51.13;25.95;;;;;;;-1.64;65.74;100605.72;5108899;28;20031;-70
2022/03/03 02:21:50;;;;;;;51.65;26.48;;;;;;;-1.64;66.22;100597.81;5102208;28;20039;-75
2022/03/03 02:24:17;;;;;;;52.63;25.55;;;;;;;-1.63;66.66;100603.03;5110014;28;20457;-76
2022/03/03 02:26:43;;;;;;;51.53;26.73;;;;;;;-1.63;67.00;100586.38;5109842;28;20020;-76
2022/03/03 02:29:08;;;;;;;53.35;26.40;;;;;;;-1.66;67.41;100582.09;5109962;28;20027;-76
2022/03/03 02:31:34;;;;;;;50.53;25.65;;;;;;;-1.64;67.67;100582.03;5100483;28;20028;-75
2022/03/03 02:34:00;;;;;;;50.10;26.70;;;;;;;-1.60;67.46;100586.28;5109727;28;20081;-75
2022/03/03 02:36:28;;;;;;;51.72;25.67;;;;;;;-1.59;67.71;100573.06;5109590;28;20031;-76
2022/03/03 02:38:56;;;;;;;55.95;26.48;;;;;;;-1.49;68.14;100584.16;5109454;28;20468;-76
2022/03/03 02:41:23;;;;;;;55.67;26.70;;;;;;;-1.53;67.85;100572.88;5110507;28;20031;-75
2022/03/03 02:43:50;;;;;;;49.88;24.88;;;;;;;-1.55;67.96;100565.97;5113854;28;20483;-76
2022/03/03 02:46:15;;;;;;;49.10;24.65;;;;;;;-1.47;67.80;100585.81;5104965;28;20091;-76
2022/03/03 02:48:41;;;;;;;43.60;24.80;;;;;;;-1.51;68.23;100571.06;5113765;28;20028;-76
2022/03/03 02:51:07;;;;;;;49.67;25.48;;;;;;;-1.53;67.71;100578.13;5113805;28;20019;-77
2022/03/03 02:53:33;;;;;;;49.90;25.50;;;;;;;-1.47;67.97;100588.44;5113783;28;20080;-76
2022/03/03 02:55:59;;;;;;;53.50;27.33;;;;;;;-1.44;68.02;100590.97;5113641;28;20464;-77
2022/03/03 02:58:24;;;;;;;52.95;27.73;;;;;;;-1.49;67.53;100587.63;5113646;28;20031;-76
2022/03/03 03:00:50;;;;;;;53.13;28.38;;;;;;;-1.57;67.04;100576.53;5113562;28;20019;-75
2022/03/03 03:03:18;;;;;;;59.90;28.98;;;;;;;-1.55;66.53;100594.88;5113689;28;20027;-77
2022/03/03 03:05:44;;;;;;;52.33;27.90;;;;;;;-1.63;66.68;100576.72;5103287;28;20089;-71
2022/03/03 03:08:10;;;;;;;56.00;29.80;;;;;;;-1.63;66.41;100579.38;5112883;28;20107;-71
2022/03/03 03:10:36;;;;;;;57.55;28.85;;;;;;;-1.67;66.24;100593.53;5112418;28;20082;-70
2022/03/03 03:13:02;;;;;;;56.58;28.55;;;;;;;-1.72;66.35;100584.94;5112309;28;20038;-70
2022/03/03 03:15:27;;;;;;;55.40;29.08;;;;;;;-1.73;66.42;100591.09;5100439;28;20028;-70
2022/03/03 03:17:53;;;;;;;54.55;29.02;;;;;;;-1.84;66.69;100579.22;5112515;28;20080;-70
2022/03/03 03:20:19;;;;;;;58.17;29.75;;;;;;;-1.78;66.81;100587.75;5113208;28;20024;-71
2022/03/03 03:22:44;;;;;;;55.85;28.77;;;;;;;-1.92;66.90;100571.59;5112825;28;20069;-71
2022/03/03 03:25:11;;;;;;;57.72;29.55;;;;;;;-1.86;66.99;100587.16;5112603;28;20054;-71
2022/03/03 03:27:39;;;;;;;63.13;31.00;;;;;;;-1.98;67.17;100574.44;5112473;28;20016;-71
2022/03/03 03:30:07;;;;;;;63.33;29.60;;;;;;;-1.97;67.20;100580.56;5110203;28;20088;-71
2022/03/03 03:32:33;;;;;;;72.13;31.30;;;;;;;-1.95;66.62;100587.47;5113065;28;20474;-71
2022/03/03 03:34:59;;;;;;;67.05;31.80;;;;;;;-2.01;66.80;100590.28;5112222;28;20043;-71
2022/03/03 03:37:24;;;;;;;62.33;29.90;;;;;;;-2.06;66.38;100589.59;5112290;28;20047;-71
2022/03/03 03:39:50;;;;;;;62.08;30.13;;;;;;;-2.06;66.56;100586.97;5094903;28;20040;-71
2022/03/03 03:42:15;;;;;;;66.28;30.65;;;;;;;-2.13;66.81;100582.81;5112111;28;20062;-71
2022/03/03 03:44:41;;;;;;;59.90;30.77;;;;;;;-2.16;66.10;100589.94;5102975;28;20034;-72
2022/03/03 03:47:07;;;;;;;62.05;31.23;;;;;;;-2.19;66.92;100587.41;5112093;28;20012;-70
2022/03/03 03:49:33;;;;;;;60.47;30.27;;;;;;;-2.17;67.03;100598.72;5112058;28;20027;-71
2022/03/03 03:51:59;;;;;;;73.88;31.98;;;;;;;-2.21;67.32;100592.72;5111456;28;20066;-70
2022/03/03 03:54:25;;;;;;;63.08;30.55;;;;;;;-2.30;67.27;100586.91;5110918;28;20031;-71
2022/03/03 03:56:51;;;;;;;62.70;28.70;;;;;;;-2.26;67.19;100599.03;5111990;28;20057;-73
2022/03/03 03:59:16;;;;;;;66.78;31.30;;;;;;;-2.33;67.53;100588.69;5112202;28;20047;-69
2022/03/03 04:01:42;;;;;;;64.53;31.00;;;;;;;-2.28;67.68;100595.56;5111977;28;20066;-72
2022/03/03 04:04:07;;;;;;;68.95;32.78;;;;;;;-2.45;67.95;100578.56;5111613;28;20032;-72
2022/03/03 04:06:33;;;;;;;66.10;31.42;;;;;;;-2.35;67.90;100594.91;5111669;28;20034;-72
2022/03/03 04:08:58;;;;;;;65.95;30.88;;;;;;;-2.36;67.57;100595.81;5111466;28;20019;-70
2022/03/03 04:11:24;;;;;;;61.30;31.27;;;;;;;-2.43;67.95;100589.91;5112176;28;20110;-71
2022/03/03 04:13:49;;;;;;;67.63;31.08;;;;;;;-2.43;67.49;100587.28;5108601;28;20027;-71
2022/03/03 04:16:15;;;;;;;74.00;31.95;;;;;;;-2.48;67.24;100590.94;5112597;28;20050;-70
2022/03/03 04:18:41;;;;;;;75.05;35.42;;;;;;;-2.60;68.00;100573.81;5111101;28;20024;-71
2022/03/03 04:21:07;;;;;;;69.28;33.60;;;;;;;-2.53;68.12;100588.47;5111374;28;20102;-71
2022/03/03 04:23:32;;;;;;;69.60;33.17;;;;;;;-2.69;68.50;100567.97;5111308;28;20051;-70
2022/03/03 04:25:58;;;;;;;74.30;35.17;;;;;;;-2.61;68.30;100584.34;5111164;28;20067;-70
2022/03/03 04:28:23;;;;;;;72.78;34.38;;;;;;;-2.70;68.24;100572.34;5111445;28;20012;-72
2022/03/03 04:30:49;;;;;;;67.47;31.45;;;;;;;-2.66;68.95;100583.63;5110971;28;20023;-70
2022/03/03 04:33:15;;;;;;;75.57;35.40;;;;;;;-2.78;68.80;100566.47;5106003;28;20035;-70
2022/03/03 04:35:41;;;;;;;73.00;33.80;;;;;;;-2.71;68.58;100586.38;5108140;28;20076;-70
2022/03/03 04:38:06;;;;;;;74.65;33.65;;;;;;;-2.72;68.98;100589.06;5100604;28;20153;-70
2022/03/03 04:40:32;;;;;;;75.78;35.30;;;;;;;-2.74;68.94;100590.88;5110292;28;20499;-70
2022/03/03 04:42:57;;;;;;;73.57;36.30;;;;;;;-2.78;68.96;100584.84;5109565;28;20031;-70
2022/03/03 04:45:23;;;;;;;67.60;34.63;;;;;;;-2.87;69.22;100568.53;5109935;28;20110;-70
2022/03/03 04:47:49;;;;;;;77.18;34.00;;;;;;;-2.79;69.09;100585.75;5110112;28;20019;-70
2022/03/03 04:50:14;;;;;;;76.32;34.63;;;;;;;-2.91;69.35;100565.13;5109875;28;20078;-70
2022/03/03 04:52:40;;;;;;;66.63;32.22;;;;;;;-2.92;69.07;100571.28;5109868;28;20099;-70
2022/03/03 04:55:06;;;;;;;74.47;32.75;;;;;;;-2.83;69.46;100589.38;5109795;28;20534;-70
2022/03/03 04:57:32;;;;;;;66.15;32.08;;;;;;;-2.94;69.28;100566.97;5109418;28;20042;-70
2022/03/03 04:59:57;;;;;;;64.80;32.05;;;;;;;-3.00;69.27;100556.69;5097616;28;20023;-71
2022/03/03 05:02:23;;;;;;;70.88;30.20;;;;;;;-2.98;69.17;100560.97;5109903;27;20031;-71
2022/03/03 05:04:48;;;;;;;70.28;34.13;;;;;;;-2.92;68.90;100566.03;5109656;28;20036;-72
2022/03/03 05:07:14;;;;;;;61.08;31.15;;;;;;;-2.97;68.80;100572.34;5109262;28;20048;-70
2022/03/03 05:09:40;;;;;;;69.85;32.10;;;;;;;-2.97;68.83;100567.09;5109370;28;20077;-71
2022/03/03 05:12:06;;;;;;;74.00;33.60;;;;;;;-3.02;68.84;100568.97;5109146;28;20024;-71
2022/03/03 05:14:31;;;;;;;68.43;31.90;;;;;;;-3.07;68.89;100550.75;5109048;28;20035;-71
2022/03/03 05:16:57;;;;;;;65.75;33.25;;;;;;;-3.08;69.04;100556.91;5099277;28;20510;-72
2022/03/03 05:19:22;;;;;;;68.93;33.45;;;;;;;-2.99;69.18;100575.00;5109391;28;20464;-70
2022/03/03 05:21:48;;;;;;;79.07;34.17;;;;;;;-3.13;69.56;100548.28;5105082;28;20059;-70
2022/03/03 05:24:13;;;;;;;80.90;33.70;;;;;;;-3.16;69.87;100553.63;5109317;28;20663;-71
2022/03/03 05:26:39;;;;;;;70.32;33.20;;;;;;;-3.15;69.61;100550.13;5109287;28;20420;-71
2022/03/03 05:29:04;;;;;;;76.28;36.17;;;;;;;-3.03;69.25;100577.75;5100619;28;20031;-71
2022/03/03 05:31:30;;;;;;;75.93;36.17;;;;;;;-3.10;68.93;100566.56;5109037;28;20024;-70
2022/03/03 05:33:55;;;;;;;77.95;33.33;;;;;;;-3.17;69.53;100556.28;5107970;28;20078;-70
2022/03/03 05:36:23;;;;;;;67.68;32.85;;;;;;;-3.11;69.84;100572.72;5094067;28;20036;-71
2022/03/03 05:38:49;;;;;;;68.43;33.33;;;;;;;-3.11;70.08;100577.97;5107522;28;20053;-71
2022/03/03 05:41:14;;;;;;;71.93;34.50;;;;;;;-3.15;69.87;100572.84;5108464;28;20114;-72
2022/03/03 05:43:41;;;;;;;67.55;33.65;;;;;;;-3.08;70.38;100577.88;5108685;28;20375;-71
2022/03/03 05:46:06;;;;;;;73.50;32.15;;;;;;;-3.14;70.59;100562.31;5107864;28;20364;-71
2022/03/03 05:48:33;;;;;;;76.40;33.05;;;;;;;-3.18;70.85;100557.19;5107734;28;20041;-70
2022/03/03 05:50:58;;;;;;;79.63;34.40;;;;;;;-3.09;70.79;100578.75;5108861;28;20020;-70
2022/03/03 05:53:24;;;;;;;69.65;32.83;;;;;;;-3.04;70.78;100584.75;5109406;28;20471;-71
2022/03/03 05:55:53;;;;;;;82.32;33.90;;;;;;;-3.15;70.90;100571.09;5102457;28;20042;-71
2022/03/03 05:58:20;;;;;;;93.25;34.50;;;;;;;-3.06;70.61;100583.09;5109555;28;20384;-71
2022/03/03 06:00:48;;;;;;;75.22;34.13;;;;;;;-3.11;70.87;100572.72;5109130;28;20031;-71
2022/03/03 06:03:19;;;;;;;87.40;33.60;;;;;;;-3.09;71.16;100573.53;5100265;28;20509;-71
2022/03/03 06:05:51;;;;;;;89.07;35.95;;;;;;;-3.03;70.72;100593.50;5100054;28;20173;-72
2022/03/03 06:08:23;;;;;;;77.43;34.13;;;;;;;-3.00;71.28;100598.66;5109818;28;20024;-72
2022/03/03 06:10:53;;;;;;;78.22;33.15;;;;;;;-2.94;71.31;100604.56;5102500;28;20382;-72
2022/03/03 06:13:23;;;;;;;89.43;33.60;;;;;;;-2.89;70.98;100607.94;5109474;28;20085;-71
2022/03/03 06:15:50;;;;;;;83.30;33.58;;;;;;;-2.94;71.74;100596.69;5105119;28;20336;-72
2022/03/03 06:18:27;;;;;;;76.82;35.03;;;;;;;-2.94;71.07;100594.06;5105502;28;20390;-72
2022/03/03 06:20:53;;;;;;;84.32;36.63;;;;;;;-2.83;71.42;100599.84;5106926;28;20351;-71
2022/03/03 06:23:20;;;;;;;92.45;35.70;;;;;;;-2.85;71.04;100601.69;5102416;28;20462;-72
2022/03/03 06:26:00;;;;;;;204.10;45.40;;;;;;;-2.79;71.19;100603.25;5094242;28;20138;-72
2022/03/03 06:28:27;;;;;;;186.55;42.67;;;;;;;-2.71;71.31;100617.88;5109028;28;20051;-72
2022/03/03 06:30:52;;;;;;;113.50;37.30;;;;;;;-2.73;71.20;100603.09;5100679;28;20104;-73
2022/03/03 06:33:18;;;;;;;97.20;36.95;;;;;;;-2.61;70.95;100619.31;5108231;28;20061;-71
2022/03/03 06:35:43;;;;;;;93.25;37.03;;;;;;;-2.61;71.43;100610.59;5097062;28;20129;-72
2022/03/03 06:38:08;;;;;;;104.28;36.92;;;;;;;-2.52;71.09;100612.94;5108688;28;20090;-72
2022/03/03 06:40:34;;;;;;;119.45;38.22;;;;;;;-2.48;71.73;100604.91;5108837;28;20038;-72
2022/03/03 06:43:01;;;;;;;99.25;37.33;;;;;;;-2.44;71.70;100600.44;5108959;28;20035;-72
2022/03/03 06:45:28;;;;;;;89.32;40.55;;;;;;;-2.38;72.32;100611.59;5105061;28;20027;-71
2022/03/03 06:47:55;;;;;;;114.18;45.58;;;;;;;-2.28;72.58;100620.91;5097356;28;20020;-72
2022/03/03 06:50:21;;;;;;;106.43;48.35;;;;;;;-2.27;72.88;100606.03;5108806;28;20020;-72
2022/03/03 06:52:48;;;;;;;106.03;46.95;;;;;;;-2.17;73.13;100607.47;5108422;28;20076;-72
2022/03/03 06:55:19;;;;;;;110.28;55.67;;;;;;;-2.06;72.99;100594.84;5108995;28;20024;-72
2022/03/03 06:57:49;;;;;;;165.70;78.10;;;;;;;-1.94;72.73;100597.06;5106350;28;20023;-71
2022/03/03 07:00:19;;;;;;;166.00;75.63;;;;;;;-1.87;71.98;100584.59;5106519;28;20040;-72
2022/03/03 07:02:46;;;;;;;160.45;71.28;;;;;;;-1.56;70.61;100599.28;5109210;28;20020;-73
2022/03/03 07:05:12;;;;;;;178.82;71.57;;;;;;;-1.45;70.40;100601.53;5104542;28;20059;-71
2022/03/03 07:07:40;;;;;;;150.32;62.95;;;;;;;-1.41;70.83;100592.63;5108527;28;20039;-71
2022/03/03 07:10:06;;;;;;;149.88;60.28;;;;;;;-1.35;70.80;100576.63;5108771;28;20407;-71
2022/03/03 07:12:33;;;;;;;156.70;62.40;;;;;;;-1.13;70.73;100596.84;5108695;28;20031;-72
2022/03/03 07:14:59;;;;;;;134.45;55.67;;;;;;;-0.97;70.12;100597.16;5108627;28;20454;-72
2022/03/03 07:17:46;;;;;;;132.93;54.72;;;;;;;-0.77;69.14;100592.84;5099669;28;20102;-72
2022/03/03 07:20:17;;;;;;;133.98;52.45;;;;;;;-0.63;68.59;100589.72;5108480;28;20028;-72
2022/03/03 07:23:04;;;;;;;125.80;52.63;;;;;;;-0.41;68.28;100601.16;5096402;28;20420;-73
2022/03/03 07:25:48;;;;;;;116.82;50.10;;;;;;;-0.26;68.04;100598.75;5106500;28;20056;-71
2022/03/03 07:28:14;;;;;;;109.15;47.75;;;;;;;-0.08;67.49;100599.81;5102264;28;20027;-71
2022/03/03 07:30:43;;;;;;;112.85;48.60;;;;;;;0.07;66.85;100585.16;5112262;28;20467;-73
2022/03/03 07:33:18;;;;;;;109.05;45.40;;;;;;;0.34;66.04;100591.91;5111958;28;20035;-71
2022/03/03 07:35:48;;;;;;;101.78;43.25;;;;;;;0.63;65.01;100583.59;5100150;28;20023;-71
2022/03/03 07:38:23;;;;;;;96.38;40.80;;;;;;;1.01;64.34;100590.72;5112194;28;20066;-72
2022/03/03 07:40:49;;;;;;;83.45;37.60;;;;;;;1.34;63.58;100584.75;5099872;28;20356;-72
2022/03/03 07:43:16;;;;;;;92.88;37.78;;;;;;;1.68;62.11;100571.66;5112296;28;20433;-71
2022/03/03 07:45:43;;;;;;;79.20;33.38;;;;;;;2.24;60.95;100569.78;5112167;28;20106;-72
2022/03/03 07:48:10;;;;;;;58.13;32.25;;;;;;;3.13;58.49;100567.72;5111954;28;20020;-72
2022/03/03 07:50:39;;;;;;;58.88;30.70;;;;;;;3.87;56.12;100561.81;5111937;28;20050;-72
2022/03/03 07:53:10;;;;;;;57.42;30.42;;;;;;;4.72;53.87;100552.34;5111910;28;20663;-72
2022/03/03 07:55:47;;;;;;;53.42;28.23;;;;;;;5.74;51.59;100547.66;5102066;28;20031;-72
2022/03/03 07:58:18;;;;;;;50.30;26.60;;;;;;;6.74;48.54;100545.34;5112132;28;20043;-72
2022/03/03 08:00:48;;;;;;;42.35;26.50;;;;;;;7.68;46.98;100535.03;5110343;28;20478;-71
2022/03/03 08:03:19;;;;;;;38.65;25.83;;;;;;;8.54;44.07;100518.72;5111669;28;20031;-72
2022/03/03 08:05:49;;;;;;;38.28;24.45;;;;;;;9.32;42.55;100519.66;5111391;28;20036;-72
2022/03/03 08:08:17;;;;;;;43.22;27.23;;;;;;;9.97;41.33;100520.56;5111630;28;20023;-72
2022/03/03 08:10:44;;;;;;;38.95;26.58;;;;;;;10.59;40.07;100520.72;5111615;28;20363;-72
2022/03/03 08:13:12;;;;;;;35.13;23.08;;;;;;;11.03;38.63;100513.22;5111454;28;20050;-72
2022/03/03 08:15:39;;;;;;;38.83;24.17;;;;;;;11.57;37.66;100504.03;5111172;28;20055;-71
2022/03/03 08:18:07;;;;;;;31.92;20.48;;;;;;;12.17;36.10;100507.44;5110836;28;20027;-72
2022/03/03 08:20:34;;;;;;;35.20;21.35;;;;;;;12.65;35.91;100502.03;5111298;28;20029;-71
2022/03/03 08:23:01;;;;;;;29.73;21.33;;;;;;;13.11;34.90;100504.81;5110979;28;20062;-70
2022/03/03 08:25:27;;;;;;;35.50;22.23;;;;;;;13.47;33.77;100485.97;5102764;28;20049;-69
2022/03/03 08:27:54;;;;;;;32.75;21.02;;;;;;;13.75;33.33;100484.13;5111096;28;20026;-71
2022/03/03 08:30:21;;;;;;;31.00;20.58;;;;;;;13.61;33.11;100476.53;5111091;28;20036;-71
2022/03/03 08:33:15;;;;;;;35.72;19.73;;;;;;;12.66;34.26;100490.28;5110495;28;20088;-71
2022/03/03 08:35:44;;;;;;;30.95;19.38;;;;;;;11.99;35.06;100492.13;5110578;28;20102;-71
2022/03/03 08:38:28;;;;;;;28.85;17.45;;;;;;;11.14;36.61;100485.47;5110733;28;20065;-72
2022/03/03 08:40:55;;;;;;;33.45;18.48;;;;;;;10.78;36.35;100484.16;5109296;28;20471;-70
2022/03/03 08:43:22;;;;;;;29.60;18.00;;;;;;;9.98;38.06;100476.72;5110786;28;20465;-71
2022/03/03 08:45:49;;;;;;;30.88;19.65;;;;;;;9.54;38.94;100474.13;5111114;28;20049;-72
2022/03/03 08:48:15;;;;;;;30.88;18.52;;;;;;;9.06;39.84;100457.53;5110676;28;20114;-71
2022/03/03 08:50:43;;;;;;;33.30;18.55;;;;;;;8.84;40.46;100488.78;5098442;28;20050;-72
2022/03/03 08:53:09;;;;;;;26.95;17.58;;;;;;;8.45;41.49;100473.13;5110398;28;20043;-71
2022/03/03 08:55:38;;;;;;;32.33;17.55;;;;;;;8.26;41.77;100479.00;5110222;28;20062;-71
2022/03/03 08:58:06;;;;;;;31.73;17.83;;;;;;;8.06;42.85;100470.78;5110154;28;20063;-70
2022/03/03 09:00:32;;;;;;;27.65;17.30;;;;;;;7.94;43.27;100471.69;5105978;28;20026;-71
2022/03/03 09:02:59;;;;;;;30.52;18.02;;;;;;;7.96;43.03;100481.28;5110255;28;20468;-70
2022/03/03 09:05:27;;;;;;;31.58;17.52;;;;;;;7.89;43.29;100485.38;5107606;28;20027;-70
2022/03/03 09:07:53;;;;;;;30.02;17.20;;;;;;;7.87;43.00;100479.28;5110928;28;20094;-71
2022/03/03 09:10:19;;;;;;;27.80;16.55;;;;;;;7.89;43.47;100485.38;5111742;28;20027;-70
2022/03/03 09:12:44;;;;;;;27.15;15.55;;;;;;;8.01;43.18;100476.47;5110466;28;20100;-71
2022/03/03 09:15:11;;;;;;;23.20;15.63;;;;;;;8.24;42.08;100480.09;5111568;28;20040;-71
2022/03/03 09:17:37;;;;;;;32.85;16.33;;;;;;;8.51;42.33;100477.97;5113166;28;20039;-80
2022/03/03 09:20:11;;;;;;;27.60;15.90;;;;;;;9.58;40.07;100475.63;5116201;28;20075;-81
2022/03/03 09:22:38;;;;;;;23.40;14.77;;;;;;;11.48;37.06;100454.63;5109101;28;20146;-82
2022/03/03 09:25:04;;;;;;;22.83;13.45;;;;;;;13.39;33.84;100458.91;5116014;28;20076;-80
2022/03/03 09:27:29;;;;;;;22.77;13.95;;;;;;;15.09;31.54;100438.75;5109997;28;20098;-80
2022/03/03 09:29:55;;;;;;;20.08;13.88;;;;;;;16.67;29.09;100447.69;5110632;28;20123;-81
2022/03/03 09:32:20;;;;;;;18.20;11.65;;;;;;;17.92;26.94;100447.63;5095693;28;20082;-80
2022/03/03 09:34:46;;;;;;;17.40;12.00;;;;;;;18.83;25.46;100446.59;5106198;28;20102;-80
2022/03/03 09:37:13;;;;;;;19.98;14.40;;;;;;;19.56;24.82;100439.38;5115261;28;20058;-81
2022/03/03 09:39:39;;;;;;;18.23;13.40;;;;;;;20.11;24.14;100428.75;5115418;28;20028;-80
2022/03/03 09:42:05;;;;;;;21.48;13.45;;;;;;;20.69;23.60;100432.25;5115156;28;20144;-80
2022/03/03 09:44:30;;;;;;;20.13;13.05;;;;;;;21.01;23.28;100424.38;5114246;28;20040;-80
2022/03/03 09:46:56;;;;;;;16.80;12.45;;;;;;;21.66;22.61;100434.81;5113467;28;20023;-81
2022/03/03 09:49:22;;;;;;;15.25;13.30;;;;;;;22.07;22.26;100430.16;5113265;28;20062;-80
2022/03/03 09:51:48;;;;;;;23.90;14.20;;;;;;;22.29;21.99;100431.69;5111751;28;20019;-80
2022/03/03 09:54:14;;;;;;;15.85;12.25;;;;;;;22.49;21.45;100424.41;5114758;28;20047;-80
2022/03/03 09:56:40;;;;;;;16.35;12.05;;;;;;;22.59;20.96;100408.41;5114387;27;20032;-78
2022/03/03 09:59:07;;;;;;;14.98;12.07;;;;;;;22.74;21.17;100410.94;5112908;28;20049;-80
2022/03/03 10:01:33;;;;;;;21.88;12.38;;;;;;;22.68;21.02;100401.69;5114377;28;20490;-80
2022/03/03 10:04:20;;;;;;;15.00;11.48;;;;;;;22.75;20.82;100418.94;5114354;28;20111;-80
2022/03/03 10:06:47;;;;;;;12.40;11.10;;;;;;;22.90;20.66;100410.53;5109540;28;20516;-72
2022/03/03 10:09:13;;;;;;;11.93;10.35;;;;;;;23.50;20.24;100401.97;5108943;28;20719;-72
2022/03/03 10:12:00;;;;;;;15.98;12.32;;;;;;;23.60;19.88;100392.25;5108690;28;20019;-72
2022/03/03 10:14:36;;;;;;;13.93;11.13;;;;;;;23.74;20.06;100404.00;5107188;28;20035;-71
2022/03/03 10:17:06;;;;;;;12.40;9.98;;;;;;;23.83;20.12;100402.72;5108731;28;20028;-71
2022/03/03 10:19:32;;;;;;;13.05;9.05;;;;;;;23.90;19.77;100387.06;5108895;28;20035;-71
2022/03/03 10:21:58;;;;;;;11.80;9.48;;;;;;;24.15;19.47;100391.59;5108603;28;20035;-71
2022/03/03 10:24:27;;;;;;;11.25;8.75;;;;;;;24.28;19.28;100390.69;5108925;28;20063;-71
2022/03/03 10:27:00;;;;;;;13.88;8.35;;;;;;;24.26;19.24;100393.63;5108734;28;20023;-72
2022/03/03 10:29:26;;;;;;;9.82;7.88;;;;;;;24.41;19.05;100388.66;5109520;28;20035;-79
2022/03/03 10:31:53;;;;;;;12.75;9.27;;;;;;;24.51;19.03;100384.59;5100659;28;20494;-80
2022/03/03 10:34:21;;;;;;;13.30;9.32;;;;;;;24.53;18.83;100374.25;5112232;28;20027;-80
2022/03/03 10:37:06;;;;;;;11.63;9.25;;;;;;;24.84;18.64;100374.19;5112164;28;20036;-79
2022/03/03 10:39:43;;;;;;;9.35;8.27;;;;;;;24.85;18.75;100364.94;5097378;28;20020;-79
2022/03/03 10:42:15;;;;;;;10.88;8.20;;;;;;;24.42;18.96;100375.81;5111994;28;20039;-78
2022/03/03 10:44:41;;;;;;;11.15;8.23;;;;;;;24.46;18.98;100368.81;5099868;28;20101;-79
2022/03/03 10:47:13;;;;;;;12.48;9.52;;;;;;;24.48;18.97;100367.50;5111573;28;20680;-79
2022/03/03 10:49:43;;;;;;;14.50;10.27;;;;;;;24.01;19.29;100356.25;5109591;28;20454;-79
2022/03/03 10:52:25;;;;;;;11.27;8.93;;;;;;;23.15;19.75;100365.03;5110754;28;20031;-78
2022/03/03 10:55:20;;;;;;;13.50;10.30;;;;;;;21.90;20.73;100366.88;5109875;28;20039;-80
2022/03/03 10:57:51;;;;;;;12.70;10.38;;;;;;;20.49;22.25;100365.81;5107088;28;20455;-79
2022/03/03 11:00:23;;;;;;;16.75;10.00;;;;;;;18.85;23.95;100368.47;5110971;28;20421;-79
2022/03/03 11:02:51;;;;;;;12.23;10.15;;;;;;;17.89;24.88;100369.28;5101352;28;20024;-79
2022/03/03 11:05:18;;;;;;;15.45;9.93;;;;;;;16.61;26.56;100370.63;5112999;28;20073;-79
2022/03/03 11:07:46;;;;;;;18.83;12.05;;;;;;;15.56;27.93;100371.59;5114061;27;20061;-78
2022/03/03 11:10:17;;;;;;;14.98;11.43;;;;;;;14.84;28.93;100372.13;5113939;28;20023;-78